Time;durP1;ratioP1;P1;durP2;ratioP2;P2;SDS_P1;SDS_P2;PMS_P1;PMS_P2;Temp;Humidity;BMP_temperature;BMP_pressure;BME280_temperature;BME280_humidity;BME280_pressure;Samples;Min_cycle;Max_cycle;Signal;HPM_P1;HPM_P2
2023/11/21 00:01:15;;;;;;;;;1.00;0.00;;;;;22.88;46.95;101201.22;4975596;28;45510;-73
2023/11/21 00:03:40;;;;;;;;;2.00;2.00;;;;;22.89;47.28;101202.06;4976287;28;45449;-71
2023/11/21 00:06:08;;;;;;;;;1.67;1.67;;;;;22.88;46.91;101198.56;4975978;28;48955;-73
2023/11/21 00:08:34;;;;;;;;;1.00;1.00;;;;;22.57;47.41;101149.84;4975838;28;46064;-72
2023/11/21 00:11:00;;;;;;;;;0.00;0.00;;;;;22.83;47.10;101192.97;4976044;28;45380;-73
2023/11/21 00:13:25;;;;;;;;;1.00;1.00;;;;;22.77;47.12;101183.88;4975907;28;45397;-74
2023/11/21 00:15:52;;;;;;;;;0.00;0.00;;;;;22.87;47.20;101204.06;4975504;28;45436;-73
2023/11/21 00:18:17;;;;;;;;;0.00;0.00;;;;;22.89;46.87;101194.09;4975427;28;49269;-73
2023/11/21 00:20:43;;;;;;;;;1.67;1.00;;;;;22.85;47.31;101194.44;4975696;28;45411;-73
2023/11/21 00:23:09;;;;;;;;;0.00;0.00;;;;;22.72;46.76;101179.09;4976021;28;45390;-73
2023/11/21 00:25:35;;;;;;;;;1.00;1.00;;;;;22.77;47.32;101185.72;4975968;28;45336;-73
2023/11/21 00:28:01;;;;;;;;;0.00;0.00;;;;;22.84;47.09;101200.75;4975497;28;46135;-73
2023/11/21 00:30:27;;;;;;;;;1.67;0.00;;;;;22.74;47.23;101176.31;4975441;28;45329;-73
2023/11/21 00:32:52;;;;;;;;;1.00;1.00;;;;;22.84;47.02;101191.97;4976714;28;45345;-75
2023/11/21 00:35:18;;;;;;;;;2.00;0.33;;;;;22.55;47.26;101146.56;4979113;28;45507;-73
2023/11/21 00:37:43;;;;;;;;;0.33;0.33;;;;;22.83;46.99;101195.63;4979069;28;46665;-73
2023/11/21 00:40:09;;;;;;;;;0.00;0.00;;;;;22.81;46.55;101198.47;4979050;28;45279;-73
2023/11/21 00:42:34;;;;;;;;;1.00;1.00;;;;;22.82;46.73;101200.09;4979181;28;45346;-73
2023/11/21 00:45:00;;;;;;;;;1.00;1.00;;;;;22.83;46.80;101200.94;4978705;28;45358;-73
2023/11/21 00:47:25;;;;;;;;;1.00;1.00;;;;;22.79;46.89;101200.47;4978915;28;45952;-73
2023/11/21 00:49:50;;;;;;;;;0.00;0.00;;;;;22.81;47.09;101202.94;4978909;28;45283;-73
2023/11/21 00:52:16;;;;;;;;;0.00;0.00;;;;;22.81;46.83;101209.06;4978646;28;53001;-73
2023/11/21 00:54:42;;;;;;;;;1.00;0.67;;;;;22.70;47.16;101191.72;4978930;28;45466;-73
2023/11/21 00:57:08;;;;;;;;;1.00;1.00;;;;;22.81;46.98;101209.06;4978637;28;46071;-73
2023/11/21 00:59:34;;;;;;;;;0.00;0.00;;;;;22.71;47.12;101193.41;4978253;28;45439;-73
2023/11/21 01:02:01;;;;;;;;;1.00;1.00;;;;;22.80;47.21;101212.72;4978718;28;45409;-73
2023/11/21 01:04:27;;;;;;;;;2.00;1.00;;;;;22.80;46.65;101220.66;4978653;28;45392;-72
2023/11/21 01:06:52;;;;;;;;;3.00;1.00;;;;;22.79;47.08;101211.09;4978521;28;46496;-73
2023/11/21 01:09:18;;;;;;;;;0.00;0.00;;;;;22.79;46.89;101220.84;4978672;28;45495;-73
2023/11/21 01:11:44;;;;;;;;;0.00;0.00;;;;;22.78;47.26;101217.38;4978677;28;45342;-73
2023/11/21 01:14:10;;;;;;;;;0.00;0.00;;;;;22.68;46.75;101196.34;4978166;28;45274;-73
2023/11/21 01:16:35;;;;;;;;;0.00;0.00;;;;;22.78;46.63;101203.28;4978370;28;47022;-73
2023/11/21 01:19:01;;;;;;;;;0.00;0.00;;;;;22.78;47.00;101201.47;4978375;28;45385;-73
2023/11/21 01:21:27;;;;;;;;;1.00;0.00;;;;;22.78;46.58;101211.25;4978492;28;45327;-73
2023/11/21 01:23:53;;;;;;;;;2.00;0.00;;;;;22.71;46.96;101195.22;4978481;28;45413;-73
2023/11/21 01:26:18;;;;;;;;;0.33;0.33;;;;;22.78;46.87;101211.25;4978223;28;46148;-73
2023/11/21 01:28:43;;;;;;;;;1.67;0.33;;;;;22.69;46.78;101199.84;4977841;28;50327;-73
2023/11/21 01:31:09;;;;;;;;;0.00;0.00;;;;;22.64;47.14;101195.03;4978445;28;45318;-73
2023/11/21 01:33:34;;;;;;;;;1.00;1.00;;;;;22.77;46.52;101221.03;4978311;28;45429;-72
2023/11/21 01:35:59;;;;;;;;;0.67;0.67;;;;;22.71;46.93;101211.13;4978206;28;46086;-73
2023/11/21 01:38:25;;;;;;;;;1.00;1.00;;;;;22.78;46.96;101230.63;4978242;28;45563;-72
2023/11/21 01:40:50;;;;;;;;;0.00;0.00;;;;;22.79;46.54;101231.47;4978238;28;45385;-73
2023/11/21 01:43:16;;;;;;;;;1.00;1.00;;;;;22.78;46.97;101221.84;4977899;28;45442;-73
2023/11/21 01:45:42;;;;;;;;;0.33;0.33;;;;;22.73;46.58;101219.72;4976622;28;47042;-73
2023/11/21 01:48:08;;;;;;;;;1.00;1.00;;;;;22.78;47.18;101229.81;4978075;28;45349;-72
2023/11/21 01:50:34;;;;;;;;;0.00;0.00;;;;;22.77;47.01;101234.28;4978049;28;45382;-73
2023/11/21 01:53:01;;;;;;;;;0.00;0.00;;;;;22.77;46.83;101239.59;4978146;28;45255;-73
2023/11/21 01:55:27;;;;;;;;;0.00;0.00;;;;;22.78;47.20;101235.13;4978185;28;46301;-72
2023/11/21 01:57:53;;;;;;;;;2.00;1.00;;;;;22.78;46.66;101232.47;4977118;28;45314;-72
2023/11/21 02:00:19;;;;;;;;;0.67;0.67;;;;;22.79;46.76;101234.94;4976701;28;45341;-73
2023/11/21 02:02:48;;;;;;;;;1.00;1.00;;;;;22.79;47.15;101240.25;4977972;28;45361;-73
2023/11/21 02:05:18;;;;;;;;;1.00;1.00;;;;;22.74;46.47;101232.00;4977609;28;46002;-73
2023/11/21 02:07:44;;;;;;;;;2.33;1.00;;;;;22.71;46.57;101230.53;4976484;28;45405;-73
2023/11/21 02:10:14;;;;;;;;;0.33;0.33;;;;;22.77;47.21;101242.25;4977356;28;45356;-73
2023/11/21 02:12:40;;;;;;;;;0.00;0.00;;;;;22.74;47.06;101238.13;4977772;28;45297;-73
2023/11/21 02:15:14;;;;;;;;;0.00;0.00;;;;;22.72;47.10;101237.47;4977264;28;46292;-73
2023/11/21 02:17:41;;;;;;;;;2.00;1.00;;;;;22.72;47.11;101244.59;4976875;28;45500;-72
2023/11/21 02:20:07;;;;;;;;;0.00;0.00;;;;;22.72;47.07;101239.28;4992657;28;45357;-73
2023/11/21 02:22:37;;;;;;;;;0.67;0.67;;;;;22.74;47.01;101242.63;4977495;28;45418;-73
2023/11/21 02:25:03;;;;;;;;;0.00;0.00;;;;;22.66;46.85;101235.50;4977219;28;46408;-73
2023/11/21 02:27:29;;;;;;;;;1.00;1.00;;;;;22.72;46.92;101245.44;4977414;28;45448;-73
2023/11/21 02:29:54;;;;;;;;;1.67;1.00;;;;;22.73;46.79;101248.91;4977451;28;45348;-73
2023/11/21 02:32:22;;;;;;;;;0.00;0.00;;;;;22.66;46.53;101239.97;4977667;28;45332;-73
2023/11/21 02:34:48;;;;;;;;;0.00;0.00;;;;;22.74;47.01;101255.88;4977282;28;46207;-73
2023/11/21 02:37:13;;;;;;;;;0.00;0.00;;;;;22.68;46.53;101245.94;4977270;28;45350;-73
2023/11/21 02:39:39;;;;;;;;;1.00;0.00;;;;;22.72;46.99;101253.38;4976961;28;45395;-73
2023/11/21 02:42:04;;;;;;;;;1.00;1.00;;;;;22.73;46.40;101256.88;4977441;28;45286;-73
2023/11/21 02:44:29;;;;;;;;;0.00;0.00;;;;;22.72;46.39;101261.34;4975931;28;48612;-73
2023/11/21 02:46:55;;;;;;;;;0.67;0.67;;;;;22.73;46.79;101262.16;4976596;28;56892;-73
2023/11/21 02:49:20;;;;;;;;;0.00;0.00;;;;;22.70;46.53;101258.03;4977309;28;45452;-73
2023/11/21 02:51:45;;;;;;;;;0.00;0.00;;;;;22.68;46.95;101243.28;4977240;28;45378;-73
2023/11/21 02:54:11;;;;;;;;;1.00;1.00;;;;;22.73;46.47;101255.03;4976537;28;51860;-73
2023/11/21 02:56:37;;;;;;;;;0.00;0.00;;;;;22.72;46.50;101250.72;4976607;28;45446;-73
2023/11/21 02:59:02;;;;;;;;;0.00;0.00;;;;;22.77;46.67;101265.31;4977108;28;45413;-73
2023/11/21 03:01:28;;;;;;;;;2.67;1.00;;;;;22.70;46.72;101250.09;4976763;28;45480;-73
2023/11/21 03:03:55;;;;;;;;;0.33;0.33;;;;;22.71;46.63;101253.56;4976947;28;47228;-73
2023/11/21 03:06:20;;;;;;;;;1.00;1.00;;;;;22.77;46.76;101262.66;4976996;28;45414;-73
2023/11/21 03:08:46;;;;;;;;;1.00;1.00;;;;;22.77;46.55;101266.13;4976618;28;45325;-73
2023/11/21 03:11:15;;;;;;;;;1.00;0.00;;;;;22.71;46.77;101258.88;4976848;28;45438;-73
2023/11/21 03:13:43;;;;;;;;;0.67;0.67;;;;;22.70;46.75;101254.56;4976774;28;46184;-72
2023/11/21 03:16:10;;;;;;;;;0.67;0.67;;;;;22.74;46.39;101264.63;4976849;28;45370;-73
2023/11/21 03:18:36;;;;;;;;;1.67;1.00;;;;;22.49;46.33;101224.97;4976375;28;45416;-72
2023/11/21 03:21:01;;;;;;;;;0.67;0.00;;;;;22.43;46.46;101219.56;4976618;28;45572;-73
2023/11/21 03:23:26;;;;;;;;;0.67;0.00;;;;;22.44;46.72;101218.53;4976293;28;45440;-73
2023/11/21 03:25:52;;;;;;;;;1.00;1.00;;;;;22.65;46.51;101256.88;4976621;28;45304;-72
2023/11/21 03:28:17;;;;;;;;;1.00;0.00;;;;;22.72;46.77;101271.94;4976896;28;45290;-73
2023/11/21 03:30:43;;;;;;;;;0.00;0.00;;;;;22.63;46.29;101249.09;4976637;28;45519;-73
2023/11/21 03:33:08;;;;;;;;;1.33;1.33;;;;;22.66;46.45;101255.88;4976287;28;46057;-73
2023/11/21 03:35:33;;;;;;;;;1.33;1.00;;;;;22.38;46.80;101215.56;4976513;28;45591;-73
2023/11/21 03:37:59;;;;;;;;;1.00;0.00;;;;;22.72;46.29;101269.28;4976062;28;45505;-73
2023/11/21 03:40:24;;;;;;;;;1.00;0.00;;;;;22.71;46.51;101275.63;4976447;28;45517;-73
2023/11/21 03:42:50;;;;;;;;;1.00;1.00;;;;;22.71;46.58;101265.00;4976253;28;46901;-73
2023/11/21 03:45:15;;;;;;;;;2.33;1.00;;;;;22.65;46.69;101267.47;4976302;28;45421;-73
2023/11/21 03:47:42;;;;;;;;;1.00;1.00;;;;;22.68;46.32;101278.59;4976506;28;45333;-73
2023/11/21 03:50:08;;;;;;;;;0.67;0.67;;;;;22.70;46.29;101283.72;4974994;28;45489;-73
2023/11/21 03:52:34;;;;;;;;;1.00;1.00;;;;;22.71;46.69;101278.28;4975756;28;46164;-73
2023/11/21 03:55:00;;;;;;;;;2.00;0.00;;;;;22.70;46.54;101286.38;4976141;28;45281;-73
2023/11/21 03:57:27;;;;;;;;;2.67;1.67;;;;;22.70;46.63;101284.56;4976095;28;45268;-73
2023/11/21 03:59:53;;;;;;;;;1.00;1.00;;;;;22.72;46.29;101289.69;4976127;28;46144;-73
2023/11/21 04:02:19;;;;;;;;;0.00;0.00;;;;;22.63;46.74;101281.75;4975983;28;46202;-73
2023/11/21 04:04:44;;;;;;;;;0.00;0.00;;;;;22.64;46.78;101282.56;4976132;28;45381;-73
2023/11/21 04:07:09;;;;;;;;;2.00;0.00;;;;;22.65;46.74;101291.34;4975907;28;45392;-73
2023/11/21 04:09:36;;;;;;;;;1.00;0.67;;;;;22.71;46.83;101301.31;4979384;28;45274;-73
2023/11/21 04:12:01;;;;;;;;;1.00;1.00;;;;;22.59;46.25;101287.56;4979541;28;45399;-73
2023/11/21 04:14:26;;;;;;;;;0.00;0.00;;;;;22.71;46.35;101314.56;4979242;28;45349;-73
2023/11/21 04:16:53;;;;;;;;;1.00;1.00;;;;;22.71;46.85;101314.56;4979476;28;45383;-73
2023/11/21 04:19:18;;;;;;;;;0.00;0.00;;;;;22.63;46.46;101307.44;4979554;28;45349;-73
2023/11/21 04:21:44;;;;;;;;;1.33;0.00;;;;;22.61;46.39;101304.94;4978804;28;47179;-73
2023/11/21 04:24:10;;;;;;;;;2.00;1.00;;;;;22.65;46.43;101316.06;4979340;28;45342;-73
2023/11/21 04:26:36;;;;;;;;;0.00;0.00;;;;;22.72;46.72;101335.59;4979554;28;45284;-73
2023/11/21 04:29:01;;;;;;;;;0.67;0.67;;;;;22.57;46.25;101313.44;4979578;28;45414;-72
2023/11/21 04:31:26;;;;;;;;;1.00;1.00;;;;;22.68;46.68;101331.63;4979138;28;45303;-73
2023/11/21 04:33:52;;;;;;;;;0.00;0.00;;;;;22.71;46.78;101335.78;4979199;28;45241;-73
2023/11/21 04:36:17;;;;;;;;;0.00;0.00;;;;;22.63;46.67;101323.38;4978833;28;45607;-73
2023/11/21 04:38:43;;;;;;;;;0.00;0.00;;;;;22.72;46.41;101334.78;4979263;28;45410;-73
2023/11/21 04:41:09;;;;;;;;;0.00;0.00;;;;;22.72;46.86;101340.09;4978910;28;46262;-73
2023/11/21 04:43:34;;;;;;;;;0.33;0.33;;;;;22.57;46.71;101318.75;4979076;28;45407;-73
2023/11/21 04:46:01;;;;;;;;;0.33;0.33;;;;;22.72;46.22;101340.09;4979155;28;45346;-73
2023/11/21 04:48:27;;;;;;;;;1.67;1.00;;;;;22.72;46.39;101345.38;4979061;28;45464;-73
2023/11/21 04:50:52;;;;;;;;;1.00;1.00;;;;;22.72;46.88;101353.34;4978514;28;45504;-73
2023/11/21 04:53:17;;;;;;;;;0.33;0.33;;;;;22.69;46.60;101351.03;4978295;28;45655;-73
2023/11/21 04:55:43;;;;;;;;;1.00;1.00;;;;;22.73;46.69;101355.00;4978958;28;45495;-73
2023/11/21 04:58:09;;;;;;;;;0.00;0.00;;;;;22.62;46.52;101338.44;4978903;28;45371;-73
2023/11/21 05:00:36;;;;;;;;;0.00;0.00;;;;;22.72;46.83;101356.81;4978407;28;45459;-73
2023/11/21 05:03:02;;;;;;;;;0.67;0.00;;;;;22.71;46.77;101363.16;4978916;28;45256;-73
2023/11/21 05:05:27;;;;;;;;;1.00;1.00;;;;;22.71;46.45;101363.16;4978375;28;45294;-73
2023/11/21 05:07:53;;;;;;;;;0.00;0.00;;;;;22.63;46.70;101358.69;4978349;28;54399;-73
2023/11/21 05:10:19;;;;;;;;;1.00;0.00;;;;;22.58;46.62;101358.38;4978553;28;46170;-73
2023/11/21 05:12:46;;;;;;;;;1.00;1.00;;;;;22.70;46.74;101372.09;4978556;28;45497;-73
2023/11/21 05:15:14;;;;;;;;;0.00;0.00;;;;;22.70;46.33;101368.63;4978396;28;45326;-73
2023/11/21 05:17:44;;;;;;;;;0.00;0.00;;;;;22.58;46.49;101358.38;4993597;28;45459;-73
2023/11/21 05:20:14;;;;;;;;;0.00;0.00;;;;;22.67;46.77;101377.72;4977695;28;46314;-73
2023/11/21 05:22:40;;;;;;;;;0.33;0.33;;;;;22.70;46.55;101385.34;4978247;28;45405;-73
2023/11/21 05:25:09;;;;;;;;;1.00;1.00;;;;;22.69;46.48;101386.31;4978529;28;45435;-72
2023/11/21 05:27:35;;;;;;;;;1.33;1.00;;;;;22.71;46.83;101388.84;4978407;28;45308;-73
2023/11/21 05:30:06;;;;;;;;;0.33;0.33;;;;;22.61;46.68;101373.91;4978121;28;46872;-71
2023/11/21 05:32:32;;;;;;;;;0.00;0.00;;;;;22.68;46.44;101375.88;4978427;28;45349;-73
2023/11/21 05:34:58;;;;;;;;;0.33;0.33;;;;;22.69;46.51;101388.16;4976750;28;45355;-73
2023/11/21 05:37:24;;;;;;;;;0.00;0.00;;;;;22.67;46.45;101390.97;4978135;28;45278;-72
2023/11/21 05:39:49;;;;;;;;;1.67;0.00;;;;;22.69;46.39;101398.78;4977951;28;45413;-70
2023/11/21 05:42:15;;;;;;;;;0.00;0.00;;;;;22.62;46.87;101383.53;4978356;28;45331;-71
2023/11/21 05:44:43;;;;;;;;;0.00;0.00;;;;;22.69;46.73;101402.22;4978305;28;45418;-72
2023/11/21 05:47:09;;;;;;;;;1.00;0.33;;;;;22.69;46.19;101407.53;4978133;28;45346;-73
2023/11/21 05:49:34;;;;;;;;;0.33;0.33;;;;;22.69;46.75;101404.06;4977445;28;46425;-73
2023/11/21 05:52:00;;;;;;;;;1.00;1.00;;;;;22.71;46.12;101402.09;4977854;28;45422;-73
2023/11/21 05:54:25;;;;;;;;;0.67;0.67;;;;;22.71;46.48;101404.75;4977827;28;46888;-73
2023/11/21 05:56:51;;;;;;;;;0.00;0.00;;;;;22.66;46.65;101404.41;4977903;28;45432;-71
2023/11/21 05:59:17;;;;;;;;;0.00;0.00;;;;;22.73;46.34;101418.66;4977624;28;46542;-73
2023/11/21 06:01:42;;;;;;;;;0.00;0.00;;;;;22.73;46.47;101419.50;4978041;28;45270;-74
2023/11/21 06:04:10;;;;;;;;;0.67;0.67;;;;;22.70;46.63;101411.88;4977750;28;45310;-72
2023/11/21 06:06:36;;;;;;;;;0.00;0.00;;;;;22.69;46.35;101422.66;4978142;28;45303;-73
2023/11/21 06:09:01;;;;;;;;;1.00;1.00;;;;;22.65;46.30;101423.97;4977705;28;47024;-73
2023/11/21 06:11:27;;;;;;;;;0.00;0.00;;;;;22.61;46.84;101408.38;4977737;28;45408;-73
2023/11/21 06:13:53;;;;;;;;;1.00;1.00;;;;;22.69;46.58;101417.34;4977860;28;45503;-73
2023/11/21 06:16:19;;;;;;;;;0.33;0.33;;;;;22.71;46.40;101429.47;4978079;28;45432;-73
2023/11/21 06:18:45;;;;;;;;;0.00;0.00;;;;;22.72;46.41;101433.75;4977042;28;46024;-73
2023/11/21 06:21:11;;;;;;;;;0.00;0.00;;;;;22.71;46.22;101440.06;4977532;28;45314;-72
2023/11/21 06:23:36;;;;;;;;;2.33;0.00;;;;;22.72;46.20;101438.22;4977696;28;45368;-71
2023/11/21 06:26:02;;;;;;;;;0.00;0.00;;;;;22.71;46.42;101442.72;4977461;28;48798;-73
2023/11/21 06:28:27;;;;;;;;;0.00;0.00;;;;;22.60;46.34;101429.78;4977532;28;46284;-73
2023/11/21 06:30:53;;;;;;;;;2.00;0.33;;;;;22.66;46.26;101445.03;4976772;28;45355;-74
2023/11/21 06:33:18;;;;;;;;;0.00;0.00;;;;;22.67;46.11;101445.84;4977374;28;45353;-74
2023/11/21 06:35:44;;;;;;;;;0.00;0.00;;;;;22.70;46.43;101449.03;4977409;28;45517;-72
2023/11/21 06:38:10;;;;;;;;;2.00;1.00;;;;;22.71;46.15;101457.81;4978248;28;46773;-71
2023/11/21 06:40:35;;;;;;;;;0.00;0.00;;;;;22.63;46.27;101443.53;4991273;28;45356;-72
2023/11/21 06:43:00;;;;;;;;;0.00;0.00;;;;;22.59;46.39;101433.41;4989442;28;45950;-72
2023/11/21 06:45:26;;;;;;;;;0.00;0.00;;;;;22.60;46.43;101440.41;4982783;28;45466;-72
2023/11/21 06:47:51;;;;;;;;;1.67;0.00;;;;;22.72;46.57;101462.94;4986029;28;46315;-74
2023/11/21 06:50:17;;;;;;;;;1.00;1.00;;;;;22.74;46.70;101466.25;4972254;28;45561;-72
2023/11/21 06:52:43;;;;;;;;;0.67;0.67;;;;;22.68;46.60;101460.75;4967675;28;45534;-72
2023/11/21 06:55:09;;;;;;;;;1.00;0.00;;;;;22.74;47.00;101474.19;4967104;28;45565;-72
2023/11/21 06:57:35;;;;;;;;;0.00;0.00;;;;;22.73;47.06;101477.03;4965567;28;46392;-72
2023/11/21 07:00:01;;;;;;;;;0.00;0.00;;;;;22.69;46.78;101473.84;4967920;28;45524;-72
2023/11/21 07:02:26;;;;;;;;;0.00;0.00;;;;;22.58;46.79;101464.44;4967695;28;45554;-72
2023/11/21 07:04:51;;;;;;;;;0.00;0.00;;;;;22.73;47.03;101493.78;4967868;28;45434;-72
2023/11/21 07:07:18;;;;;;;;;1.00;0.00;;;;;22.62;46.55;101472.88;4967247;28;46049;-75
2023/11/21 07:09:43;;;;;;;;;1.00;1.00;;;;;22.65;46.70;101477.00;4966481;28;45510;-75
2023/11/21 07:12:09;;;;;;;;;0.00;0.00;;;;;22.61;46.85;101480.00;4970847;28;45369;-76
2023/11/21 07:14:34;;;;;;;;;0.00;0.00;;;;;22.74;47.01;101495.41;4974649;28;45620;-73
2023/11/21 07:16:59;;;;;;;;;1.00;1.00;;;;;22.74;46.58;101499.91;4976122;28;46011;-73
2023/11/21 07:19:25;;;;;;;;;1.00;1.00;;;;;22.75;46.91;101501.56;4976678;28;45391;-73
2023/11/21 07:21:51;;;;;;;;;0.00;0.00;;;;;22.75;46.89;101509.50;4976353;28;45435;-73
2023/11/21 07:24:16;;;;;;;;;0.33;0.33;;;;;22.66;47.21;101500.72;4976659;28;45374;-72
2023/11/21 07:26:42;;;;;;;;;1.00;0.00;;;;;22.74;47.14;101519.28;4976519;28;47162;-72
2023/11/21 07:29:07;;;;;;;;;0.33;0.00;;;;;22.76;46.78;101526.25;4976230;28;45301;-72
2023/11/21 07:31:35;;;;;;;;;0.00;0.00;;;;;22.75;47.16;101528.09;4976692;28;45277;-73
2023/11/21 07:34:01;;;;;;;;;0.00;0.00;;;;;22.60;46.57;101515.50;4976636;28;45444;-73
2023/11/21 07:36:26;;;;;;;;;0.67;0.67;;;;;22.75;46.45;101541.34;4976318;28;45305;-73
2023/11/21 07:38:52;;;;;;;;;0.00;0.00;;;;;22.59;46.70;101513.81;4976347;28;45650;-72
2023/11/21 07:41:18;;;;;;;;;3.00;0.00;;;;;22.75;46.68;101541.34;4975161;28;45556;-73
2023/11/21 07:43:44;;;;;;;;;0.00;0.00;;;;;22.74;46.61;101547.66;4976221;28;45511;-73
2023/11/21 07:46:12;;;;;;;;;0.00;0.00;;;;;22.66;46.74;101526.41;4976229;28;46116;-72
2023/11/21 07:48:38;;;;;;;;;1.00;1.00;;;;;22.74;46.53;101547.66;4976084;28;45393;-72
2023/11/21 07:51:03;;;;;;;;;1.00;1.00;;;;;22.74;46.66;101550.31;4976321;28;45392;-73
2023/11/21 07:53:29;;;;;;;;;2.00;1.00;;;;;22.74;46.68;101553.78;4976276;28;45365;-72
2023/11/21 07:56:05;;;;;;;;;0.00;0.00;;;;;22.74;46.66;101551.13;4976075;28;47153;-73
2023/11/21 07:58:30;;;;;;;;;1.00;1.00;;;;;22.69;46.73;101549.97;4975684;28;45325;-72
2023/11/21 08:00:56;;;;;;;;;1.33;1.33;;;;;22.74;46.76;101560.94;4975920;28;45287;-72
2023/11/21 08:03:21;;;;;;;;;0.67;0.67;;;;;22.74;47.07;101561.75;4976290;28;45373;-72
2023/11/21 08:05:47;;;;;;;;;1.00;1.00;;;;;22.74;46.95;101575.00;4976221;28;46393;-73
2023/11/21 08:08:12;;;;;;;;;1.00;1.00;;;;;22.74;47.10;101577.66;4976231;28;45357;-73
2023/11/21 08:10:38;;;;;;;;;0.00;0.00;;;;;22.74;46.72;101569.69;4976065;28;45408;-72
2023/11/21 08:13:04;;;;;;;;;0.33;0.33;;;;;22.66;47.01;101563.56;4975999;28;45582;-72
2023/11/21 08:15:31;;;;;;;;;0.00;0.00;;;;;22.74;46.97;101577.66;4974513;28;47949;-72
2023/11/21 08:17:58;;;;;;;;;0.00;0.00;;;;;22.72;46.77;101584.13;4975799;28;45467;-73
2023/11/21 08:20:24;;;;;;;;;0.33;0.33;;;;;22.72;46.52;101598.22;4976013;28;45534;-73
2023/11/21 08:22:50;;;;;;;;;0.33;0.33;;;;;22.73;47.03;101607.00;4975765;28;45361;-72
2023/11/21 08:25:17;;;;;;;;;0.33;0.33;;;;;22.72;47.07;101610.66;4975831;28;45416;-73
2023/11/21 08:27:42;;;;;;;;;0.00;0.00;;;;;22.73;46.67;101609.66;4975623;28;45393;-73
2023/11/21 08:30:08;;;;;;;;;0.00;0.00;;;;;22.70;46.57;101610.81;4975860;28;45300;-73
2023/11/21 08:32:33;;;;;;;;;0.00;0.00;;;;;22.61;46.75;101596.69;4975914;28;45557;-72
2023/11/21 08:35:01;;;;;;;;;1.00;1.00;;;;;22.68;46.82;101617.25;4975766;28;46027;-73
2023/11/21 08:37:27;;;;;;;;;0.00;0.00;;;;;22.73;46.40;101633.53;4975629;28;45424;-72
2023/11/21 08:39:53;;;;;;;;;1.00;1.00;;;;;22.63;46.51;101623.06;4975794;28;45711;-73
2023/11/21 08:42:19;;;;;;;;;1.00;1.00;;;;;22.66;46.51;101628.03;4975541;28;45357;-73
2023/11/21 08:44:44;;;;;;;;;0.00;0.00;;;;;22.71;46.35;101636.38;4975453;28;46990;-72
2023/11/21 08:47:09;;;;;;;;;0.00;0.00;;;;;22.67;46.43;101632.34;4975389;28;45278;-72
2023/11/21 08:49:35;;;;;;;;;1.00;1.00;;;;;22.73;46.93;101646.81;4975756;28;45267;-72
2023/11/21 08:52:00;;;;;;;;;0.67;0.67;;;;;22.75;46.78;101652.78;4975656;28;45513;-73
2023/11/21 08:54:26;;;;;;;;;0.00;0.00;;;;;22.75;46.25;101652.78;4977031;28;46256;-72
2023/11/21 08:56:54;;;;;;;;;2.00;1.00;;;;;22.75;46.64;101660.72;4978507;28;45253;-72
2023/11/21 08:59:20;;;;;;;;;0.00;0.00;;;;;22.76;46.93;101657.09;4978695;28;45353;-72
2023/11/21 09:01:46;;;;;;;;;1.33;0.00;;;;;22.75;46.77;101658.06;4978841;28;45461;-73
2023/11/21 09:04:12;;;;;;;;;0.00;0.00;;;;;22.78;46.78;101657.75;4978845;28;46454;-73
2023/11/21 09:06:37;;;;;;;;;1.00;1.00;;;;;22.78;46.79;101663.06;4978735;28;45615;-73
2023/11/21 09:09:05;;;;;;;;;0.00;0.00;;;;;22.78;46.91;101663.06;4978724;28;45334;-73
2023/11/21 09:11:33;;;;;;;;;0.00;0.00;;;;;22.79;46.64;101674.50;4978531;28;45480;-73
2023/11/21 09:13:59;;;;;;;;;0.33;0.33;;;;;22.73;46.63;101658.25;4978209;28;47184;-73
2023/11/21 09:16:24;;;;;;;;;0.00;0.00;;;;;22.78;46.26;101665.72;4977216;28;45346;-73
2023/11/21 09:18:50;;;;;;;;;0.00;0.00;;;;;22.74;46.67;101662.53;4978494;28;45424;-73
2023/11/21 09:21:15;;;;;;;;;1.67;1.00;;;;;22.68;46.72;101663.19;4978597;28;45268;-72
2023/11/21 09:23:41;;;;;;;;;0.00;0.00;;;;;22.44;46.44;101624.19;4978307;28;46972;-73
2023/11/21 09:26:06;;;;;;;;;1.00;1.00;;;;;22.70;46.44;101663.88;4978143;28;45496;-72
2023/11/21 09:28:31;;;;;;;;;1.00;1.00;;;;;22.73;46.45;101668.88;4978588;28;45869;-73
2023/11/21 09:30:57;;;;;;;;;1.00;1.00;;;;;22.77;46.74;101687.09;4977112;28;45476;-73
2023/11/21 09:33:24;;;;;;;;;0.00;0.00;;;;;22.78;46.64;101686.94;4978161;28;50068;-72
2023/11/21 09:35:50;;;;;;;;;0.00;0.00;;;;;22.70;46.74;101685.09;4978425;28;45493;-72
2023/11/21 09:38:16;;;;;;;;;0.00;0.00;;;;;22.77;46.42;101695.06;4978337;28;45297;-73
2023/11/21 09:40:44;;;;;;;;;0.67;0.67;;;;;22.72;46.49;101691.06;4977469;28;51405;-73
2023/11/21 09:43:17;;;;;;;;;0.67;0.00;;;;;22.77;46.82;101703.84;4978185;28;45416;-73
2023/11/21 09:45:53;;;;;;;;;2.00;0.00;;;;;22.78;46.89;101710.81;4978087;28;45267;-73
2023/11/21 09:48:20;;;;;;;;;0.00;0.00;;;;;22.78;46.48;101716.13;4978113;28;45292;-73
2023/11/21 09:50:47;;;;;;;;;0.00;0.00;;;;;22.78;46.90;101720.59;4978051;28;45365;-72
2023/11/21 09:53:20;;;;;;;;;0.33;0.33;;;;;22.72;46.70;101722.06;4977900;28;45393;-72
2023/11/21 09:55:52;;;;;;;;;2.00;1.00;;;;;22.71;46.94;101723.06;4976299;28;45500;-73
2023/11/21 09:58:19;;;;;;;;;0.00;0.00;;;;;22.77;46.54;101730.34;4977983;28;45347;-72
2023/11/21 10:00:45;;;;;;;;;0.00;0.00;;;;;22.76;46.47;101736.69;4977740;28;45350;-72
2023/11/21 10:03:11;;;;;;;;;1.00;1.00;;;;;22.69;46.75;101728.50;4977753;28;46250;-72
2023/11/21 10:05:38;;;;;;;;;0.67;0.00;;;;;22.80;46.81;101745.97;4976846;28;45549;-73
2023/11/21 10:08:07;;;;;;;;;0.00;0.00;;;;;22.71;46.43;101731.88;4978059;28;45373;-72
2023/11/21 10:10:33;;;;;;;;;0.33;0.33;;;;;22.76;46.62;101747.28;4977503;28;45248;-72
2023/11/21 10:13:03;;;;;;;;;0.00;0.00;;;;;22.73;46.37;101751.09;4977534;28;47047;-72
2023/11/21 10:15:30;;;;;;;;;1.00;0.00;;;;;22.80;46.74;101764.53;4977595;28;45362;-72
2023/11/21 10:17:56;;;;;;;;;0.00;0.00;;;;;22.78;46.50;101760.38;4977457;28;45277;-72
2023/11/21 10:20:24;;;;;;;;;0.00;0.00;;;;;22.82;46.05;101767.84;4977736;28;45442;-72
2023/11/21 10:22:49;;;;;;;;;0.00;0.00;;;;;22.82;46.49;101770.50;4977657;28;47087;-72
2023/11/21 10:25:15;;;;;;;;;0.00;0.00;;;;;22.79;46.11;101776.16;4977085;28;45375;-73
2023/11/21 10:27:43;;;;;;;;;0.00;0.00;;;;;22.81;46.12;101783.94;4977694;28;45385;-73
2023/11/21 10:30:13;;;;;;;;;0.33;0.33;;;;;22.82;46.12;101785.59;4977593;28;45460;-72
2023/11/21 10:32:40;;;;;;;;;0.00;0.00;;;;;22.77;46.69;101785.25;4977305;28;46359;-72
2023/11/21 10:35:10;;;;;;;;;0.67;0.67;;;;;22.79;46.32;101796.53;4976054;28;45988;-73
2023/11/21 10:37:43;;;;;;;;;0.00;0.00;;;;;22.74;46.62;101789.88;4976964;28;45389;-71
2023/11/21 10:40:11;;;;;;;;;1.00;1.00;;;;;22.76;46.52;101786.25;4977323;28;45603;-72
2023/11/21 10:42:41;;;;;;;;;0.00;0.00;;;;;22.81;46.74;101795.38;4977117;28;46181;-73
2023/11/21 10:45:14;;;;;;;;;0.33;0.33;;;;;22.81;46.48;101795.38;4977087;28;45365;-72
2023/11/21 10:47:41;;;;;;;;;0.00;0.00;;;;;22.79;46.33;101794.72;4977302;28;45349;-72
2023/11/21 10:50:10;;;;;;;;;1.33;0.00;;;;;22.80;46.71;101799.03;4977144;28;45405;-72
2023/11/21 10:52:36;;;;;;;;;0.00;0.00;;;;;22.79;46.12;101799.19;4976865;28;47341;-72
2023/11/21 10:55:03;;;;;;;;;1.00;1.00;;;;;22.74;46.56;101789.06;4977017;28;45299;-72
2023/11/21 10:57:30;;;;;;;;;0.33;0.33;;;;;22.80;46.11;101806.97;4977126;28;45431;-72
2023/11/21 10:59:56;;;;;;;;;0.00;0.00;;;;;22.80;46.64;101803.50;4976643;28;45301;-72
2023/11/21 11:02:27;;;;;;;;;0.00;0.00;;;;;22.78;46.38;101803.66;4976990;28;45385;-73
2023/11/21 11:04:53;;;;;;;;;1.00;1.00;;;;;22.64;46.48;101781.19;4976808;28;45235;-73
2023/11/21 11:07:25;;;;;;;;;0.00;0.00;;;;;22.76;46.08;101800.34;4976599;28;45348;-72
2023/11/21 11:09:52;;;;;;;;;0.00;0.00;;;;;22.72;46.32;101783.91;4976981;28;45326;-72
2023/11/21 11:12:19;;;;;;;;;0.00;0.00;;;;;22.70;46.63;101788.56;4976707;28;45349;-73
2023/11/21 11:14:44;;;;;;;;;0.00;0.00;;;;;22.80;46.56;101804.31;4976531;28;45239;-72
2023/11/21 11:17:10;;;;;;;;;0.00;0.00;;;;;22.81;46.50;101799.84;4976355;28;45318;-72
2023/11/21 11:19:36;;;;;;;;;1.00;0.00;;;;;22.79;46.78;101810.66;4975758;28;45472;-72